sensor_id;sensor_type;location;lat;lon;timestamp;P1;durP1;ratioP1;P2;durP2;ratioP2
12846;SDS011;6492;48.128;8.320;2023-03-24T00:01:24;2.43;;;2.00;;
12846;SDS011;6492;48.128;8.320;2023-03-24T00:05:26;2.20;;;2.00;;
12846;SDS011;6492;48.128;8.320;2023-03-24T00:09:31;2.47;;;2.10;;
12846;SDS011;6492;48.128;8.320;2023-03-24T00:13:33;2.70;;;2.20;;
12846;SDS011;6492;48.128;8.320;2023-03-24T00:17:39;2.20;;;2.00;;
12846;SDS011;6492;48.128;8.320;2023-03-24T00:21:41;2.77;;;2.30;;
12846;SDS011;6492;48.128;8.320;2023-03-24T00:25:44;2.20;;;2.00;;
12846;SDS011;6492;48.128;8.320;2023-03-24T00:29:48;2.30;;;1.83;;
12846;SDS011;6492;48.128;8.320;2023-03-24T00:33:50;2.50;;;2.30;;
12846;SDS011;6492;48.128;8.320;2023-03-24T00:37:52;2.60;;;2.00;;
12846;SDS011;6492;48.128;8.320;2023-03-24T00:41:56;2.53;;;2.33;;
12846;SDS011;6492;48.128;8.320;2023-03-24T00:46:01;3.43;;;2.00;;
12846;SDS011;6492;48.128;8.320;2023-03-24T00:50:06;2.37;;;1.80;;
12846;SDS011;6492;48.128;8.320;2023-03-24T00:54:10;2.00;;;1.90;;
12846;SDS011;6492;48.128;8.320;2023-03-24T00:58:15;2.10;;;1.90;;
12846;SDS011;6492;48.128;8.320;2023-03-24T01:02:19;2.33;;;2.13;;
12846;SDS011;6492;48.128;8.320;2023-03-24T01:06:23;2.70;;;2.00;;
12846;SDS011;6492;48.128;8.320;2023-03-24T01:10:25;2.37;;;2.17;;
12846;SDS011;6492;48.128;8.320;2023-03-24T01:14:29;3.23;;;2.10;;
12846;SDS011;6492;48.128;8.320;2023-03-24T01:18:31;1.80;;;1.70;;
12846;SDS011;6492;48.128;8.320;2023-03-24T01:22:33;2.80;;;2.20;;
12846;SDS011;6492;48.128;8.320;2023-03-24T01:26:39;1.90;;;1.80;;
12846;SDS011;6492;48.128;8.320;2023-03-24T01:30:42;2.07;;;1.90;;
12846;SDS011;6492;48.128;8.320;2023-03-24T01:34:44;3.40;;;2.00;;
12846;SDS011;6492;48.128;8.320;2023-03-24T01:38:46;2.07;;;1.90;;
12846;SDS011;6492;48.128;8.320;2023-03-24T01:42:48;2.27;;;1.90;;
12846;SDS011;6492;48.128;8.320;2023-03-24T01:46:52;1.80;;;1.67;;
12846;SDS011;6492;48.128;8.320;2023-03-24T01:50:54;2.77;;;2.27;;
12846;SDS011;6492;48.128;8.320;2023-03-24T01:54:59;2.10;;;1.70;;
12846;SDS011;6492;48.128;8.320;2023-03-24T01:59:07;2.43;;;1.90;;
12846;SDS011;6492;48.128;8.320;2023-03-24T02:03:13;1.80;;;1.70;;
12846;SDS011;6492;48.128;8.320;2023-03-24T02:07:21;2.67;;;2.00;;
12846;SDS011;6492;48.128;8.320;2023-03-24T02:11:32;2.70;;;1.80;;
12846;SDS011;6492;48.128;8.320;2023-03-24T02:15:37;2.33;;;2.00;;
12846;SDS011;6492;48.128;8.320;2023-03-24T02:28:54;2.50;;;1.97;;
12846;SDS011;6492;48.128;8.320;2023-03-24T02:33:28;2.07;;;1.73;;
12846;SDS011;6492;48.128;8.320;2023-03-24T02:37:51;2.10;;;1.90;;
12846;SDS011;6492;48.128;8.320;2023-03-24T02:42:15;2.30;;;1.70;;
12846;SDS011;6492;48.128;8.320;2023-03-24T02:46:26;2.47;;;2.10;;
12846;SDS011;6492;48.128;8.320;2023-03-24T02:50:35;2.10;;;1.90;;
12846;SDS011;6492;48.128;8.320;2023-03-24T02:54:43;1.77;;;1.60;;
12846;SDS011;6492;48.128;8.320;2023-03-24T02:58:51;2.47;;;1.90;;
12846;SDS011;6492;48.128;8.320;2023-03-24T03:02:57;2.00;;;1.80;;
12846;SDS011;6492;48.128;8.320;2023-03-24T03:07:06;2.83;;;1.90;;
12846;SDS011;6492;48.128;8.320;2023-03-24T03:11:12;1.97;;;1.70;;
12846;SDS011;6492;48.128;8.320;2023-03-24T03:15:17;2.20;;;1.73;;
12846;SDS011;6492;48.128;8.320;2023-03-24T03:19:23;2.03;;;1.80;;
12846;SDS011;6492;48.128;8.320;2023-03-24T03:23:34;1.67;;;1.57;;
12846;SDS011;6492;48.128;8.320;2023-03-24T03:27:37;1.70;;;1.60;;
12846;SDS011;6492;48.128;8.320;2023-03-24T03:31:46;1.70;;;1.60;;
12846;SDS011;6492;48.128;8.320;2023-03-24T03:35:52;1.40;;;1.30;;
12846;SDS011;6492;48.128;8.320;2023-03-24T03:39:59;1.90;;;1.53;;
12846;SDS011;6492;48.128;8.320;2023-03-24T03:44:03;2.00;;;1.60;;
12846;SDS011;6492;48.128;8.320;2023-03-24T03:48:07;1.67;;;1.53;;
12846;SDS011;6492;48.128;8.320;2023-03-24T03:52:09;4.30;;;3.50;;
12846;SDS011;6492;48.128;8.320;2023-03-24T03:56:12;2.37;;;1.50;;
12846;SDS011;6492;48.128;8.320;2023-03-24T04:00:20;1.70;;;1.60;;
12846;SDS011;6492;48.128;8.320;2023-03-24T04:09:02;1.93;;;1.73;;
12846;SDS011;6492;48.128;8.320;2023-03-24T04:13:18;1.73;;;1.60;;
12846;SDS011;6492;48.128;8.320;2023-03-24T04:17:38;2.00;;;1.23;;
12846;SDS011;6492;48.128;8.320;2023-03-24T04:22:01;1.80;;;1.70;;
12846;SDS011;6492;48.128;8.320;2023-03-24T04:26:14;1.80;;;1.57;;
12846;SDS011;6492;48.128;8.320;2023-03-24T04:30:26;1.77;;;1.60;;
12846;SDS011;6492;48.128;8.320;2023-03-24T04:34:34;3.27;;;1.80;;
12846;SDS011;6492;48.128;8.320;2023-03-24T04:38:41;2.70;;;2.20;;
12846;SDS011;6492;48.128;8.320;2023-03-24T04:42:47;2.77;;;2.27;;
12846;SDS011;6492;48.128;8.320;2023-03-24T04:46:52;3.00;;;2.70;;
12846;SDS011;6492;48.128;8.320;2023-03-24T04:50:57;4.13;;;3.00;;
12846;SDS011;6492;48.128;8.320;2023-03-24T04:55:02;4.33;;;3.40;;
12846;SDS011;6492;48.128;8.320;2023-03-24T04:59:26;4.17;;;3.40;;
12846;SDS011;6492;48.128;8.320;2023-03-24T05:03:28;3.93;;;3.30;;
12846;SDS011;6492;48.128;8.320;2023-03-24T05:07:30;5.00;;;3.70;;
12846;SDS011;6492;48.128;8.320;2023-03-24T05:11:34;4.10;;;3.70;;
12846;SDS011;6492;48.128;8.320;2023-03-24T05:15:36;4.57;;;3.77;;
12846;SDS011;6492;48.128;8.320;2023-03-24T05:19:38;5.10;;;3.60;;
12846;SDS011;6492;48.128;8.320;2023-03-24T05:23:40;3.90;;;3.50;;
12846;SDS011;6492;48.128;8.320;2023-03-24T05:27:43;3.53;;;3.23;;
12846;SDS011;6492;48.128;8.320;2023-03-24T05:31:45;5.97;;;3.40;;
12846;SDS011;6492;48.128;8.320;2023-03-24T05:35:47;4.73;;;3.83;;
12846;SDS011;6492;48.128;8.320;2023-03-24T05:39:49;4.27;;;3.83;;
12846;SDS011;6492;48.128;8.320;2023-03-24T05:43:52;6.17;;;3.83;;
12846;SDS011;6492;48.128;8.320;2023-03-24T05:47:54;5.67;;;4.23;;
12846;SDS011;6492;48.128;8.320;2023-03-24T05:51:56;5.43;;;4.33;;
12846;SDS011;6492;48.128;8.320;2023-03-24T05:56:00;5.00;;;4.50;;
12846;SDS011;6492;48.128;8.320;2023-03-24T06:00:04;5.53;;;5.00;;
12846;SDS011;6492;48.128;8.320;2023-03-24T06:04:16;6.00;;;5.30;;
12846;SDS011;6492;48.128;8.320;2023-03-24T06:08:19;6.93;;;5.37;;
12846;SDS011;6492;48.128;8.320;2023-03-24T06:12:21;5.20;;;4.70;;
12846;SDS011;6492;48.128;8.320;2023-03-24T06:16:25;6.57;;;5.87;;
12846;SDS011;6492;48.128;8.320;2023-03-24T06:20:26;5.13;;;4.40;;
12846;SDS011;6492;48.128;8.320;2023-03-24T06:24:32;6.03;;;4.63;;
12846;SDS011;6492;48.128;8.320;2023-03-24T06:28:41;6.77;;;5.03;;
12846;SDS011;6492;48.128;8.320;2023-03-24T06:32:44;5.27;;;4.77;;
12846;SDS011;6492;48.128;8.320;2023-03-24T06:41:22;5.13;;;4.63;;
12846;SDS011;6492;48.128;8.320;2023-03-24T06:45:25;5.10;;;3.97;;
12846;SDS011;6492;48.128;8.320;2023-03-24T06:49:28;6.17;;;4.30;;
12846;SDS011;6492;48.128;8.320;2023-03-24T06:53:30;4.43;;;3.57;;
12846;SDS011;6492;48.128;8.320;2023-03-24T06:57:32;3.77;;;3.40;;
12846;SDS011;6492;48.128;8.320;2023-03-24T07:01:34;4.60;;;3.57;;
12846;SDS011;6492;48.128;8.320;2023-03-24T07:10:16;3.77;;;3.20;;
12846;SDS011;6492;48.128;8.320;2023-03-24T07:18:36;3.50;;;3.20;;
12846;SDS011;6492;48.128;8.320;2023-03-24T07:22:50;3.80;;;3.37;;
12846;SDS011;6492;48.128;8.320;2023-03-24T07:31:22;3.60;;;3.03;;
12846;SDS011;6492;48.128;8.320;2023-03-24T07:35:24;3.23;;;2.90;;
12846;SDS011;6492;48.128;8.320;2023-03-24T07:39:27;2.80;;;2.60;;
12846;SDS011;6492;48.128;8.320;2023-03-24T07:43:42;3.37;;;3.07;;
12846;SDS011;6492;48.128;8.320;2023-03-24T07:47:44;3.40;;;3.00;;
12846;SDS011;6492;48.128;8.320;2023-03-24T07:51:46;3.83;;;2.83;;
12846;SDS011;6492;48.128;8.320;2023-03-24T07:55:51;2.93;;;2.67;;
12846;SDS011;6492;48.128;8.320;2023-03-24T08:00:01;2.30;;;2.10;;
12846;SDS011;6492;48.128;8.320;2023-03-24T08:04:08;3.00;;;1.87;;
12846;SDS011;6492;48.128;8.320;2023-03-24T08:08:11;1.83;;;1.73;;
12846;SDS011;6492;48.128;8.320;2023-03-24T08:12:15;1.97;;;1.87;;
12846;SDS011;6492;48.128;8.320;2023-03-24T08:20:53;3.63;;;2.40;;
12846;SDS011;6492;48.128;8.320;2023-03-24T08:38:06;2.87;;;2.10;;
12846;SDS011;6492;48.128;8.320;2023-03-24T08:46:52;2.93;;;2.20;;
12846;SDS011;6492;48.128;8.320;2023-03-24T08:50:54;3.20;;;2.90;;
12846;SDS011;6492;48.128;8.320;2023-03-24T08:55:12;4.53;;;3.07;;
12846;SDS011;6492;48.128;8.320;2023-03-24T08:59:14;2.90;;;2.60;;
12846;SDS011;6492;48.128;8.320;2023-03-24T09:03:18;2.63;;;2.30;;
12846;SDS011;6492;48.128;8.320;2023-03-24T09:07:22;2.30;;;2.07;;
12846;SDS011;6492;48.128;8.320;2023-03-24T09:11:23;1.70;;;1.60;;
12846;SDS011;6492;48.128;8.320;2023-03-24T09:15:25;1.93;;;1.80;;
12846;SDS011;6492;48.128;8.320;2023-03-24T09:19:36;2.77;;;1.80;;
12846;SDS011;6492;48.128;8.320;2023-03-24T09:23:57;2.40;;;1.40;;
12846;SDS011;6492;48.128;8.320;2023-03-24T09:28:10;1.57;;;1.47;;
12846;SDS011;6492;48.128;8.320;2023-03-24T09:32:31;2.50;;;1.60;;
12846;SDS011;6492;48.128;8.320;2023-03-24T09:36:34;1.27;;;1.17;;
12846;SDS011;6492;48.128;8.320;2023-03-24T09:40:37;2.37;;;1.17;;
12846;SDS011;6492;48.128;8.320;2023-03-24T09:44:43;2.13;;;1.43;;
12846;SDS011;6492;48.128;8.320;2023-03-24T09:48:47;1.20;;;1.10;;
12846;SDS011;6492;48.128;8.320;2023-03-24T09:52:53;1.53;;;1.20;;
12846;SDS011;6492;48.128;8.320;2023-03-24T09:56:59;1.90;;;1.30;;
12846;SDS011;6492;48.128;8.320;2023-03-24T10:01:02;1.40;;;1.30;;
12846;SDS011;6492;48.128;8.320;2023-03-24T10:05:10;0.87;;;0.87;;
12846;SDS011;6492;48.128;8.320;2023-03-24T10:09:22;1.90;;;1.20;;
12846;SDS011;6492;48.128;8.320;2023-03-24T10:13:28;2.90;;;1.50;;
12846;SDS011;6492;48.128;8.320;2023-03-24T10:17:40;1.37;;;1.27;;
12846;SDS011;6492;48.128;8.320;2023-03-24T10:21:52;1.50;;;1.40;;
12846;SDS011;6492;48.128;8.320;2023-03-24T10:26:02;1.10;;;1.00;;
12846;SDS011;6492;48.128;8.320;2023-03-24T10:30:11;1.20;;;1.10;;
12846;SDS011;6492;48.128;8.320;2023-03-24T10:34:17;1.17;;;0.87;;
12846;SDS011;6492;48.128;8.320;2023-03-24T10:38:20;0.83;;;0.83;;
12846;SDS011;6492;48.128;8.320;2023-03-24T10:42:24;1.73;;;1.10;;
12846;SDS011;6492;48.128;8.320;2023-03-24T10:46:31;0.90;;;0.90;;
12846;SDS011;6492;48.128;8.320;2023-03-24T10:50:33;1.80;;;0.90;;
12846;SDS011;6492;48.128;8.320;2023-03-24T10:54:37;1.10;;;1.00;;
12846;SDS011;6492;48.128;8.320;2023-03-24T10:58:55;0.93;;;0.87;;
12846;SDS011;6492;48.128;8.320;2023-03-24T11:03:06;0.73;;;0.70;;
12846;SDS011;6492;48.128;8.320;2023-03-24T11:07:13;0.90;;;0.70;;
12846;SDS011;6492;48.128;8.320;2023-03-24T11:11:26;0.50;;;0.50;;
12846;SDS011;6492;48.128;8.320;2023-03-24T11:20:17;0.70;;;0.70;;
12846;SDS011;6492;48.128;8.320;2023-03-24T11:24:21;0.50;;;0.50;;
12846;SDS011;6492;48.128;8.320;2023-03-24T11:28:36;0.60;;;0.60;;
12846;SDS011;6492;48.128;8.320;2023-03-24T11:32:44;0.50;;;0.33;;
12846;SDS011;6492;48.128;8.320;2023-03-24T11:36:48;0.30;;;0.30;;
12846;SDS011;6492;48.128;8.320;2023-03-24T11:40:53;0.77;;;0.40;;
12846;SDS011;6492;48.128;8.320;2023-03-24T11:44:58;0.30;;;0.30;;
12846;SDS011;6492;48.128;8.320;2023-03-24T11:49:01;0.20;;;0.20;;
12846;SDS011;6492;48.128;8.320;2023-03-24T11:53:06;0.50;;;0.50;;
12846;SDS011;6492;48.128;8.320;2023-03-24T11:57:14;0.50;;;0.50;;
12846;SDS011;6492;48.128;8.320;2023-03-24T12:01:22;0.50;;;0.50;;
12846;SDS011;6492;48.128;8.320;2023-03-24T12:05:31;0.30;;;0.30;;
12846;SDS011;6492;48.128;8.320;2023-03-24T12:09:37;0.40;;;0.37;;
12846;SDS011;6492;48.128;8.320;2023-03-24T12:13:47;0.40;;;0.40;;
12846;SDS011;6492;48.128;8.320;2023-03-24T12:17:52;0.40;;;0.40;;
12846;SDS011;6492;48.128;8.320;2023-03-24T12:22:06;0.30;;;0.30;;
12846;SDS011;6492;48.128;8.320;2023-03-24T12:26:21;0.80;;;0.43;;
12846;SDS011;6492;48.128;8.320;2023-03-24T12:30:36;1.03;;;0.40;;
12846;SDS011;6492;48.128;8.320;2023-03-24T12:39:31;0.30;;;0.30;;
12846;SDS011;6492;48.128;8.320;2023-03-24T12:43:37;0.40;;;0.40;;
12846;SDS011;6492;48.128;8.320;2023-03-24T12:47:57;0.57;;;0.40;;
12846;SDS011;6492;48.128;8.320;2023-03-24T12:56:40;0.73;;;0.60;;
12846;SDS011;6492;48.128;8.320;2023-03-24T13:00:50;0.73;;;0.60;;
12846;SDS011;6492;48.128;8.320;2023-03-24T13:05:02;0.57;;;0.57;;
12846;SDS011;6492;48.128;8.320;2023-03-24T13:09:12;0.70;;;0.70;;
12846;SDS011;6492;48.128;8.320;2023-03-24T13:13:27;1.90;;;1.30;;
12846;SDS011;6492;48.128;8.320;2023-03-24T13:17:44;0.70;;;0.70;;
12846;SDS011;6492;48.128;8.320;2023-03-24T13:21:56;0.93;;;0.83;;
12846;SDS011;6492;48.128;8.320;2023-03-24T13:26:00;1.07;;;0.77;;
12846;SDS011;6492;48.128;8.320;2023-03-24T13:30:28;2.97;;;1.57;;
12846;SDS011;6492;48.128;8.320;2023-03-24T13:34:34;1.10;;;0.90;;
12846;SDS011;6492;48.128;8.320;2023-03-24T13:38:40;1.07;;;0.93;;
12846;SDS011;6492;48.128;8.320;2023-03-24T13:42:53;0.93;;;0.93;;
12846;SDS011;6492;48.128;8.320;2023-03-24T13:47:04;1.23;;;0.87;;
12846;SDS011;6492;48.128;8.320;2023-03-24T13:51:13;2.17;;;1.13;;
12846;SDS011;6492;48.128;8.320;2023-03-24T13:55:20;1.00;;;0.90;;
12846;SDS011;6492;48.128;8.320;2023-03-24T14:03:44;1.47;;;1.37;;
12846;SDS011;6492;48.128;8.320;2023-03-24T14:07:47;1.60;;;1.20;;
12846;SDS011;6492;48.128;8.320;2023-03-24T14:20:59;1.90;;;1.60;;
12846;SDS011;6492;48.128;8.320;2023-03-24T14:25:20;3.93;;;2.47;;
12846;SDS011;6492;48.128;8.320;2023-03-24T14:29:38;2.23;;;1.80;;
12846;SDS011;6492;48.128;8.320;2023-03-24T14:33:42;1.43;;;1.33;;
12846;SDS011;6492;48.128;8.320;2023-03-24T14:38:02;2.17;;;1.50;;
12846;SDS011;6492;48.128;8.320;2023-03-24T14:42:24;1.30;;;1.20;;
12846;SDS011;6492;48.128;8.320;2023-03-24T14:51:00;1.67;;;1.50;;
12846;SDS011;6492;48.128;8.320;2023-03-24T14:55:24;1.57;;;1.47;;
12846;SDS011;6492;48.128;8.320;2023-03-24T14:59:34;2.17;;;1.97;;
12846;SDS011;6492;48.128;8.320;2023-03-24T15:03:48;1.67;;;1.50;;
12846;SDS011;6492;48.128;8.320;2023-03-24T15:12:06;1.40;;;1.30;;
12846;SDS011;6492;48.128;8.320;2023-03-24T15:16:15;2.10;;;1.70;;
12846;SDS011;6492;48.128;8.320;2023-03-24T15:20:20;3.27;;;2.13;;
12846;SDS011;6492;48.128;8.320;2023-03-24T15:24:25;2.23;;;1.70;;
12846;SDS011;6492;48.128;8.320;2023-03-24T15:28:33;1.53;;;1.43;;
12846;SDS011;6492;48.128;8.320;2023-03-24T15:32:36;1.57;;;1.33;;
12846;SDS011;6492;48.128;8.320;2023-03-24T15:36:45;2.93;;;2.40;;
12846;SDS011;6492;48.128;8.320;2023-03-24T15:40:53;3.30;;;2.50;;
12846;SDS011;6492;48.128;8.320;2023-03-24T15:45:07;3.93;;;2.80;;
12846;SDS011;6492;48.128;8.320;2023-03-24T15:49:19;4.73;;;3.30;;
12846;SDS011;6492;48.128;8.320;2023-03-24T15:53:26;1.90;;;1.60;;
12846;SDS011;6492;48.128;8.320;2023-03-24T15:57:35;2.70;;;1.60;;
12846;SDS011;6492;48.128;8.320;2023-03-24T16:01:41;3.20;;;2.20;;
12846;SDS011;6492;48.128;8.320;2023-03-24T16:05:47;2.20;;;1.80;;
12846;SDS011;6492;48.128;8.320;2023-03-24T16:10:23;3.77;;;2.87;;
12846;SDS011;6492;48.128;8.320;2023-03-24T16:14:31;1.70;;;1.53;;
12846;SDS011;6492;48.128;8.320;2023-03-24T16:23:04;3.53;;;2.10;;
12846;SDS011;6492;48.128;8.320;2023-03-24T16:27:08;1.90;;;1.57;;
12846;SDS011;6492;48.128;8.320;2023-03-24T16:31:14;3.10;;;2.53;;
12846;SDS011;6492;48.128;8.320;2023-03-24T16:35:23;2.13;;;1.87;;
12846;SDS011;6492;48.128;8.320;2023-03-24T16:39:27;4.43;;;2.93;;
12846;SDS011;6492;48.128;8.320;2023-03-24T16:43:30;4.83;;;2.80;;
12846;SDS011;6492;48.128;8.320;2023-03-24T16:47:33;2.43;;;2.07;;
12846;SDS011;6492;48.128;8.320;2023-03-24T16:51:36;3.73;;;2.73;;
12846;SDS011;6492;48.128;8.320;2023-03-24T16:55:38;2.57;;;1.40;;
12846;SDS011;6492;48.128;8.320;2023-03-24T16:59:43;2.40;;;1.93;;
12846;SDS011;6492;48.128;8.320;2023-03-24T17:03:48;1.70;;;1.43;;
12846;SDS011;6492;48.128;8.320;2023-03-24T17:07:54;1.90;;;1.70;;
12846;SDS011;6492;48.128;8.320;2023-03-24T17:12:10;1.70;;;1.50;;
12846;SDS011;6492;48.128;8.320;2023-03-24T17:16:12;2.00;;;1.77;;
12846;SDS011;6492;48.128;8.320;2023-03-24T17:20:16;1.60;;;1.50;;
12846;SDS011;6492;48.128;8.320;2023-03-24T17:24:20;2.60;;;1.70;;
12846;SDS011;6492;48.128;8.320;2023-03-24T17:28:23;2.60;;;1.47;;
12846;SDS011;6492;48.128;8.320;2023-03-24T17:32:30;1.90;;;1.70;;
12846;SDS011;6492;48.128;8.320;2023-03-24T17:36:33;1.80;;;1.60;;
12846;SDS011;6492;48.128;8.320;2023-03-24T17:40:36;2.73;;;1.80;;
12846;SDS011;6492;48.128;8.320;2023-03-24T17:44:38;2.20;;;1.50;;
12846;SDS011;6492;48.128;8.320;2023-03-24T17:48:40;2.07;;;1.70;;
12846;SDS011;6492;48.128;8.320;2023-03-24T17:52:43;1.80;;;1.67;;
12846;SDS011;6492;48.128;8.320;2023-03-24T17:56:48;3.00;;;2.10;;
12846;SDS011;6492;48.128;8.320;2023-03-24T18:00:50;1.90;;;1.67;;
12846;SDS011;6492;48.128;8.320;2023-03-24T18:04:52;3.17;;;2.30;;
12846;SDS011;6492;48.128;8.320;2023-03-24T18:08:54;2.10;;;1.83;;
12846;SDS011;6492;48.128;8.320;2023-03-24T18:12:57;2.83;;;2.37;;
12846;SDS011;6492;48.128;8.320;2023-03-24T18:17:00;2.30;;;1.90;;
12846;SDS011;6492;48.128;8.320;2023-03-24T18:21:02;2.73;;;1.93;;
12846;SDS011;6492;48.128;8.320;2023-03-24T18:25:06;3.27;;;2.23;;
12846;SDS011;6492;48.128;8.320;2023-03-24T18:29:10;7.23;;;4.60;;
12846;SDS011;6492;48.128;8.320;2023-03-24T18:33:12;1.80;;;1.60;;
12846;SDS011;6492;48.128;8.320;2023-03-24T18:37:15;5.00;;;2.67;;
12846;SDS011;6492;48.128;8.320;2023-03-24T18:41:16;3.87;;;2.93;;
12846;SDS011;6492;48.128;8.320;2023-03-24T18:45:19;4.53;;;3.70;;
12846;SDS011;6492;48.128;8.320;2023-03-24T18:49:21;3.10;;;2.43;;
12846;SDS011;6492;48.128;8.320;2023-03-24T18:53:23;5.37;;;2.30;;
12846;SDS011;6492;48.128;8.320;2023-03-24T18:57:26;2.80;;;2.17;;
12846;SDS011;6492;48.128;8.320;2023-03-24T19:01:29;2.33;;;1.73;;
12846;SDS011;6492;48.128;8.320;2023-03-24T19:05:31;2.40;;;2.03;;
12846;SDS011;6492;48.128;8.320;2023-03-24T19:09:33;2.10;;;1.90;;
12846;SDS011;6492;48.128;8.320;2023-03-24T19:13:36;2.67;;;1.63;;
12846;SDS011;6492;48.128;8.320;2023-03-24T19:17:40;2.93;;;1.93;;
12846;SDS011;6492;48.128;8.320;2023-03-24T19:21:41;2.40;;;1.80;;
12846;SDS011;6492;48.128;8.320;2023-03-24T19:25:43;4.33;;;2.97;;
12846;SDS011;6492;48.128;8.320;2023-03-24T19:29:45;2.60;;;1.90;;
12846;SDS011;6492;48.128;8.320;2023-03-24T19:33:49;3.17;;;2.20;;
12846;SDS011;6492;48.128;8.320;2023-03-24T19:37:52;2.97;;;1.73;;
12846;SDS011;6492;48.128;8.320;2023-03-24T19:41:55;1.80;;;1.63;;
12846;SDS011;6492;48.128;8.320;2023-03-24T19:45:57;2.10;;;1.90;;
12846;SDS011;6492;48.128;8.320;2023-03-24T19:54:27;3.77;;;2.00;;
12846;SDS011;6492;48.128;8.320;2023-03-24T19:58:29;3.17;;;2.07;;
12846;SDS011;6492;48.128;8.320;2023-03-24T20:02:31;4.30;;;2.07;;
12846;SDS011;6492;48.128;8.320;2023-03-24T20:06:34;3.90;;;2.53;;
12846;SDS011;6492;48.128;8.320;2023-03-24T20:10:36;3.67;;;2.33;;
12846;SDS011;6492;48.128;8.320;2023-03-24T20:14:39;6.13;;;2.47;;
12846;SDS011;6492;48.128;8.320;2023-03-24T20:22:46;4.17;;;2.00;;
12846;SDS011;6492;48.128;8.320;2023-03-24T20:26:48;3.87;;;1.80;;
12846;SDS011;6492;48.128;8.320;2023-03-24T20:30:50;1.87;;;1.67;;
12846;SDS011;6492;48.128;8.320;2023-03-24T20:34:57;6.00;;;2.30;;
12846;SDS011;6492;48.128;8.320;2023-03-24T20:39:00;4.57;;;2.30;;
12846;SDS011;6492;48.128;8.320;2023-03-24T20:43:04;2.43;;;1.90;;
12846;SDS011;6492;48.128;8.320;2023-03-24T20:47:06;2.60;;;2.03;;
12846;SDS011;6492;48.128;8.320;2023-03-24T20:51:14;4.57;;;3.40;;
12846;SDS011;6492;48.128;8.320;2023-03-24T20:55:17;4.60;;;2.90;;
12846;SDS011;6492;48.128;8.320;2023-03-24T20:59:19;5.63;;;2.77;;
12846;SDS011;6492;48.128;8.320;2023-03-24T21:03:21;5.70;;;2.40;;
12846;SDS011;6492;48.128;8.320;2023-03-24T21:07:23;6.93;;;2.60;;
12846;SDS011;6492;48.128;8.320;2023-03-24T21:11:27;4.13;;;2.40;;
12846;SDS011;6492;48.128;8.320;2023-03-24T21:15:30;3.93;;;2.70;;
12846;SDS011;6492;48.128;8.320;2023-03-24T21:19:32;3.17;;;2.43;;
12846;SDS011;6492;48.128;8.320;2023-03-24T21:23:36;1.90;;;1.23;;
12846;SDS011;6492;48.128;8.320;2023-03-24T21:27:39;2.17;;;1.30;;
12846;SDS011;6492;48.128;8.320;2023-03-24T21:31:41;1.80;;;1.20;;
12846;SDS011;6492;48.128;8.320;2023-03-24T21:35:43;2.07;;;1.40;;
12846;SDS011;6492;48.128;8.320;2023-03-24T21:39:45;2.27;;;1.50;;
12846;SDS011;6492;48.128;8.320;2023-03-24T21:43:48;3.57;;;1.80;;
12846;SDS011;6492;48.128;8.320;2023-03-24T21:47:52;7.57;;;2.53;;
12846;SDS011;6492;48.128;8.320;2023-03-24T21:51:55;3.40;;;2.07;;
12846;SDS011;6492;48.128;8.320;2023-03-24T21:55:57;6.40;;;3.63;;
12846;SDS011;6492;48.128;8.320;2023-03-24T22:00:05;6.70;;;2.90;;
12846;SDS011;6492;48.128;8.320;2023-03-24T22:04:13;6.13;;;2.37;;
12846;SDS011;6492;48.128;8.320;2023-03-24T22:08:16;3.30;;;2.27;;
12846;SDS011;6492;48.128;8.320;2023-03-24T22:12:25;5.17;;;2.77;;
12846;SDS011;6492;48.128;8.320;2023-03-24T22:16:28;4.23;;;2.30;;
12846;SDS011;6492;48.128;8.320;2023-03-24T22:20:31;3.97;;;1.67;;
12846;SDS011;6492;48.128;8.320;2023-03-24T22:24:36;4.27;;;1.70;;
12846;SDS011;6492;48.128;8.320;2023-03-24T22:28:46;6.50;;;2.53;;
12846;SDS011;6492;48.128;8.320;2023-03-24T22:32:52;4.13;;;1.87;;
12846;SDS011;6492;48.128;8.320;2023-03-24T22:36:53;5.10;;;2.00;;
12846;SDS011;6492;48.128;8.320;2023-03-24T22:40:55;3.70;;;1.67;;
12846;SDS011;6492;48.128;8.320;2023-03-24T22:44:58;4.10;;;1.73;;
12846;SDS011;6492;48.128;8.320;2023-03-24T22:49:01;4.37;;;1.63;;
12846;SDS011;6492;48.128;8.320;2023-03-24T22:53:03;2.90;;;1.47;;
12846;SDS011;6492;48.128;8.320;2023-03-24T22:57:05;3.17;;;1.60;;
12846;SDS011;6492;48.128;8.320;2023-03-24T23:05:16;5.57;;;1.90;;
12846;SDS011;6492;48.128;8.320;2023-03-24T23:09:28;5.53;;;1.50;;
12846;SDS011;6492;48.128;8.320;2023-03-24T23:13:29;3.50;;;2.70;;
12846;SDS011;6492;48.128;8.320;2023-03-24T23:17:34;3.20;;;1.50;;
12846;SDS011;6492;48.128;8.320;2023-03-24T23:21:38;4.87;;;1.73;;
12846;SDS011;6492;48.128;8.320;2023-03-24T23:25:42;4.30;;;1.90;;
12846;SDS011;6492;48.128;8.320;2023-03-24T23:29:45;4.73;;;2.50;;
12846;SDS011;6492;48.128;8.320;2023-03-24T23:33:48;3.63;;;1.60;;
12846;SDS011;6492;48.128;8.320;2023-03-24T23:37:54;4.63;;;1.97;;
12846;SDS011;6492;48.128;8.320;2023-03-24T23:41:55;4.83;;;1.47;;
12846;SDS011;6492;48.128;8.320;2023-03-24T23:45:57;6.60;;;2.37;;
12846;SDS011;6492;48.128;8.320;2023-03-24T23:49:59;3.63;;;1.73;;
12846;SDS011;6492;48.128;8.320;2023-03-24T23:54:03;4.80;;;1.80;;
12846;SDS011;6492;48.128;8.320;2023-03-24T23:58:17;5.07;;;1.63;;
